sensor_id;sensor_type;location;lat;lon;timestamp;P1;durP1;ratioP1;P2;durP2;ratioP2
45077;SDS011;60508;42.622;25.416;2023-04-24T00:00:58;11.25;;;3.70;;
45077;SDS011;60508;42.622;25.416;2023-04-24T00:03:26;6.53;;;3.57;;
45077;SDS011;60508;42.622;25.416;2023-04-24T00:05:56;8.05;;;3.30;;
45077;SDS011;60508;42.622;25.416;2023-04-24T00:08:24;7.07;;;3.50;;
45077;SDS011;60508;42.622;25.416;2023-04-24T00:10:52;8.20;;;3.15;;
45077;SDS011;60508;42.622;25.416;2023-04-24T00:13:18;4.43;;;3.20;;
45077;SDS011;60508;42.622;25.416;2023-04-24T00:15:46;8.10;;;2.90;;
45077;SDS011;60508;42.622;25.416;2023-04-24T00:18:11;8.95;;;3.67;;
45077;SDS011;60508;42.622;25.416;2023-04-24T00:20:37;4.43;;;3.70;;
45077;SDS011;60508;42.622;25.416;2023-04-24T00:23:04;11.48;;;3.38;;
45077;SDS011;60508;42.622;25.416;2023-04-24T00:25:31;8.27;;;3.78;;
45077;SDS011;60508;42.622;25.416;2023-04-24T00:27:57;4.45;;;3.33;;
45077;SDS011;60508;42.622;25.416;2023-04-24T00:30:23;18.70;;;3.80;;
45077;SDS011;60508;42.622;25.416;2023-04-24T00:32:50;9.68;;;4.22;;
45077;SDS011;60508;42.622;25.416;2023-04-24T00:35:17;5.22;;;3.22;;
45077;SDS011;60508;42.622;25.416;2023-04-24T00:37:45;6.47;;;3.47;;
45077;SDS011;60508;42.622;25.416;2023-04-24T00:40:12;11.90;;;4.15;;
45077;SDS011;60508;42.622;25.416;2023-04-24T00:42:39;6.55;;;3.60;;
45077;SDS011;60508;42.622;25.416;2023-04-24T00:45:06;13.77;;;4.38;;
45077;SDS011;60508;42.622;25.416;2023-04-24T00:47:33;10.45;;;3.55;;
45077;SDS011;60508;42.622;25.416;2023-04-24T00:50:01;16.60;;;4.03;;
45077;SDS011;60508;42.622;25.416;2023-04-24T00:52:31;16.05;;;3.85;;
45077;SDS011;60508;42.622;25.416;2023-04-24T00:54:58;9.95;;;4.05;;
45077;SDS011;60508;42.622;25.416;2023-04-24T00:57:24;9.63;;;4.18;;
45077;SDS011;60508;42.622;25.416;2023-04-24T00:59:51;7.75;;;4.25;;
45077;SDS011;60508;42.622;25.416;2023-04-24T01:02:18;9.95;;;4.13;;
45077;SDS011;60508;42.622;25.416;2023-04-24T01:04:46;5.35;;;4.03;;
45077;SDS011;60508;42.622;25.416;2023-04-24T01:07:12;7.88;;;4.72;;
45077;SDS011;60508;42.622;25.416;2023-04-24T01:09:40;5.05;;;4.13;;
45077;SDS011;60508;42.622;25.416;2023-04-24T01:12:07;7.82;;;4.35;;
45077;SDS011;60508;42.622;25.416;2023-04-24T01:14:33;10.68;;;4.18;;
45077;SDS011;60508;42.622;25.416;2023-04-24T01:17:00;6.80;;;4.68;;
45077;SDS011;60508;42.622;25.416;2023-04-24T01:19:27;9.38;;;4.45;;
45077;SDS011;60508;42.622;25.416;2023-04-24T01:21:54;4.97;;;4.47;;
45077;SDS011;60508;42.622;25.416;2023-04-24T01:24:24;13.27;;;4.00;;
45077;SDS011;60508;42.622;25.416;2023-04-24T01:26:51;10.95;;;4.63;;
45077;SDS011;60508;42.622;25.416;2023-04-24T01:29:18;9.88;;;4.80;;
45077;SDS011;60508;42.622;25.416;2023-04-24T01:31:44;5.85;;;4.43;;
45077;SDS011;60508;42.622;25.416;2023-04-24T01:34:11;6.28;;;4.05;;
45077;SDS011;60508;42.622;25.416;2023-04-24T01:36:38;11.77;;;4.47;;
45077;SDS011;60508;42.622;25.416;2023-04-24T01:39:05;5.55;;;4.38;;
45077;SDS011;60508;42.622;25.416;2023-04-24T01:41:31;9.43;;;4.10;;
45077;SDS011;60508;42.622;25.416;2023-04-24T01:43:58;8.85;;;4.07;;
45077;SDS011;60508;42.622;25.416;2023-04-24T01:46:27;6.30;;;4.20;;
45077;SDS011;60508;42.622;25.416;2023-04-24T01:48:54;8.55;;;4.47;;
45077;SDS011;60508;42.622;25.416;2023-04-24T01:51:20;9.02;;;4.75;;
45077;SDS011;60508;42.622;25.416;2023-04-24T01:53:46;7.15;;;4.55;;
45077;SDS011;60508;42.622;25.416;2023-04-24T01:56:12;10.98;;;5.38;;
45077;SDS011;60508;42.622;25.416;2023-04-24T01:58:39;8.40;;;4.07;;
45077;SDS011;60508;42.622;25.416;2023-04-24T02:01:06;10.63;;;3.80;;
45077;SDS011;60508;42.622;25.416;2023-04-24T02:03:32;5.32;;;4.10;;
45077;SDS011;60508;42.622;25.416;2023-04-24T02:05:58;7.15;;;4.85;;
45077;SDS011;60508;42.622;25.416;2023-04-24T02:08:23;8.25;;;4.38;;
45077;SDS011;60508;42.622;25.416;2023-04-24T02:10:49;5.72;;;4.35;;
45077;SDS011;60508;42.622;25.416;2023-04-24T02:13:15;9.02;;;5.20;;
45077;SDS011;60508;42.622;25.416;2023-04-24T02:15:43;14.05;;;4.88;;
45077;SDS011;60508;42.622;25.416;2023-04-24T02:18:09;7.65;;;4.85;;
45077;SDS011;60508;42.622;25.416;2023-04-24T02:20:36;10.93;;;4.85;;
45077;SDS011;60508;42.622;25.416;2023-04-24T02:23:03;7.03;;;4.75;;
45077;SDS011;60508;42.622;25.416;2023-04-24T02:25:29;12.50;;;4.75;;
45077;SDS011;60508;42.622;25.416;2023-04-24T02:27:55;10.50;;;4.35;;
45077;SDS011;60508;42.622;25.416;2023-04-24T02:30:21;7.32;;;4.78;;
45077;SDS011;60508;42.622;25.416;2023-04-24T02:32:48;11.10;;;4.70;;
45077;SDS011;60508;42.622;25.416;2023-04-24T02:35:14;9.23;;;4.30;;
45077;SDS011;60508;42.622;25.416;2023-04-24T02:37:40;8.02;;;4.43;;
45077;SDS011;60508;42.622;25.416;2023-04-24T02:40:07;7.88;;;5.32;;
45077;SDS011;60508;42.622;25.416;2023-04-24T02:42:33;10.02;;;6.40;;
45077;SDS011;60508;42.622;25.416;2023-04-24T02:45:00;10.27;;;4.57;;
45077;SDS011;60508;42.622;25.416;2023-04-24T02:47:26;7.03;;;4.40;;
45077;SDS011;60508;42.622;25.416;2023-04-24T02:49:52;5.50;;;4.07;;
45077;SDS011;60508;42.622;25.416;2023-04-24T02:52:19;8.85;;;4.35;;
45077;SDS011;60508;42.622;25.416;2023-04-24T02:54:45;9.63;;;5.38;;
45077;SDS011;60508;42.622;25.416;2023-04-24T02:57:11;9.13;;;4.97;;
45077;SDS011;60508;42.622;25.416;2023-04-24T02:59:40;16.73;;;6.85;;
45077;SDS011;60508;42.622;25.416;2023-04-24T03:02:06;21.48;;;7.90;;
45077;SDS011;60508;42.622;25.416;2023-04-24T03:04:32;12.45;;;8.00;;
45077;SDS011;60508;42.622;25.416;2023-04-24T03:06:58;9.98;;;6.38;;
45077;SDS011;60508;42.622;25.416;2023-04-24T03:09:24;15.05;;;8.32;;
45077;SDS011;60508;42.622;25.416;2023-04-24T03:11:50;10.25;;;5.07;;
45077;SDS011;60508;42.622;25.416;2023-04-24T03:14:16;10.60;;;5.10;;
45077;SDS011;60508;42.622;25.416;2023-04-24T03:16:42;11.32;;;4.47;;
45077;SDS011;60508;42.622;25.416;2023-04-24T03:19:09;7.57;;;3.90;;
45077;SDS011;60508;42.622;25.416;2023-04-24T03:21:43;9.10;;;5.03;;
45077;SDS011;60508;42.622;25.416;2023-04-24T03:24:10;12.50;;;4.68;;
45077;SDS011;60508;42.622;25.416;2023-04-24T03:26:36;11.90;;;4.45;;
45077;SDS011;60508;42.622;25.416;2023-04-24T03:29:20;8.43;;;4.97;;
45077;SDS011;60508;42.622;25.416;2023-04-24T03:31:46;5.13;;;3.75;;
45077;SDS011;60508;42.622;25.416;2023-04-24T03:34:13;6.35;;;4.45;;
45077;SDS011;60508;42.622;25.416;2023-04-24T03:36:40;9.07;;;4.20;;
45077;SDS011;60508;42.622;25.416;2023-04-24T03:39:07;16.27;;;4.18;;
45077;SDS011;60508;42.622;25.416;2023-04-24T03:41:36;11.43;;;4.73;;
45077;SDS011;60508;42.622;25.416;2023-04-24T03:44:18;7.22;;;4.13;;
45077;SDS011;60508;42.622;25.416;2023-04-24T03:46:45;5.57;;;4.25;;
45077;SDS011;60508;42.622;25.416;2023-04-24T03:49:12;7.60;;;3.75;;
45077;SDS011;60508;42.622;25.416;2023-04-24T03:51:41;8.52;;;3.88;;
45077;SDS011;60508;42.622;25.416;2023-04-24T03:54:15;8.73;;;4.63;;
45077;SDS011;60508;42.622;25.416;2023-04-24T03:56:41;10.32;;;5.57;;
45077;SDS011;60508;42.622;25.416;2023-04-24T03:59:08;5.82;;;4.68;;
45077;SDS011;60508;42.622;25.416;2023-04-24T04:01:35;7.60;;;4.68;;
45077;SDS011;60508;42.622;25.416;2023-04-24T04:04:13;9.10;;;4.55;;
45077;SDS011;60508;42.622;25.416;2023-04-24T04:06:39;6.43;;;4.28;;
45077;SDS011;60508;42.622;25.416;2023-04-24T04:09:06;8.18;;;4.80;;
45077;SDS011;60508;42.622;25.416;2023-04-24T04:11:34;26.35;;;5.85;;
45077;SDS011;60508;42.622;25.416;2023-04-24T04:14:01;18.73;;;6.05;;
45077;SDS011;60508;42.622;25.416;2023-04-24T04:16:27;22.27;;;10.20;;
45077;SDS011;60508;42.622;25.416;2023-04-24T04:18:59;22.58;;;11.43;;
45077;SDS011;60508;42.622;25.416;2023-04-24T04:21:26;36.92;;;16.42;;
45077;SDS011;60508;42.622;25.416;2023-04-24T04:23:59;22.17;;;12.98;;
45077;SDS011;60508;42.622;25.416;2023-04-24T04:26:31;23.60;;;11.65;;
45077;SDS011;60508;42.622;25.416;2023-04-24T04:29:02;11.32;;;8.20;;
45077;SDS011;60508;42.622;25.416;2023-04-24T04:31:29;11.43;;;5.25;;
45077;SDS011;60508;42.622;25.416;2023-04-24T04:33:59;10.73;;;7.05;;
45077;SDS011;60508;42.622;25.416;2023-04-24T04:36:29;18.42;;;8.13;;
45077;SDS011;60508;42.622;25.416;2023-04-24T04:39:02;16.42;;;8.57;;
45077;SDS011;60508;42.622;25.416;2023-04-24T04:41:55;14.15;;;7.68;;
45077;SDS011;60508;42.622;25.416;2023-04-24T04:44:25;12.05;;;7.15;;
45077;SDS011;60508;42.622;25.416;2023-04-24T04:46:53;19.20;;;6.95;;
45077;SDS011;60508;42.622;25.416;2023-04-24T04:49:31;11.82;;;6.78;;
45077;SDS011;60508;42.622;25.416;2023-04-24T04:51:58;12.30;;;6.88;;
45077;SDS011;60508;42.622;25.416;2023-04-24T04:54:26;20.63;;;8.15;;
45077;SDS011;60508;42.622;25.416;2023-04-24T04:56:52;15.10;;;6.60;;
45077;SDS011;60508;42.622;25.416;2023-04-24T04:59:18;8.10;;;6.15;;
45077;SDS011;60508;42.622;25.416;2023-04-24T05:01:45;11.75;;;4.95;;
45077;SDS011;60508;42.622;25.416;2023-04-24T05:04:12;10.95;;;6.25;;
45077;SDS011;60508;42.622;25.416;2023-04-24T05:06:38;17.65;;;6.50;;
45077;SDS011;60508;42.622;25.416;2023-04-24T05:09:05;11.25;;;6.20;;
45077;SDS011;60508;42.622;25.416;2023-04-24T05:11:48;11.40;;;5.57;;
45077;SDS011;60508;42.622;25.416;2023-04-24T05:14:13;11.52;;;6.85;;
45077;SDS011;60508;42.622;25.416;2023-04-24T05:16:41;18.13;;;6.80;;
45077;SDS011;60508;42.622;25.416;2023-04-24T05:19:08;11.60;;;5.82;;
45077;SDS011;60508;42.622;25.416;2023-04-24T05:21:39;8.25;;;4.90;;
45077;SDS011;60508;42.622;25.416;2023-04-24T05:24:07;16.48;;;4.63;;
45077;SDS011;60508;42.622;25.416;2023-04-24T05:29:29;12.77;;;4.13;;
45077;SDS011;60508;42.622;25.416;2023-04-24T05:31:57;8.52;;;5.82;;
45077;SDS011;60508;42.622;25.416;2023-04-24T05:34:24;4.72;;;4.15;;
45077;SDS011;60508;42.622;25.416;2023-04-24T05:36:54;13.88;;;5.10;;
45077;SDS011;60508;42.622;25.416;2023-04-24T05:39:20;7.35;;;5.35;;
45077;SDS011;60508;42.622;25.416;2023-04-24T05:41:49;21.65;;;5.03;;
45077;SDS011;60508;42.622;25.416;2023-04-24T05:44:15;9.75;;;5.47;;
45077;SDS011;60508;42.622;25.416;2023-04-24T05:46:42;11.05;;;5.88;;
45077;SDS011;60508;42.622;25.416;2023-04-24T05:49:09;12.13;;;5.45;;
45077;SDS011;60508;42.622;25.416;2023-04-24T05:51:35;14.65;;;7.35;;
45077;SDS011;60508;42.622;25.416;2023-04-24T05:54:01;18.88;;;9.38;;
45077;SDS011;60508;42.622;25.416;2023-04-24T05:56:28;15.10;;;10.05;;
45077;SDS011;60508;42.622;25.416;2023-04-24T05:58:56;14.27;;;9.68;;
45077;SDS011;60508;42.622;25.416;2023-04-24T06:01:22;16.33;;;8.30;;
45077;SDS011;60508;42.622;25.416;2023-04-24T06:03:56;21.52;;;8.40;;
45077;SDS011;60508;42.622;25.416;2023-04-24T06:06:24;15.40;;;8.48;;
45077;SDS011;60508;42.622;25.416;2023-04-24T06:08:52;18.20;;;10.95;;
45077;SDS011;60508;42.622;25.416;2023-04-24T06:11:18;26.00;;;10.73;;
45077;SDS011;60508;42.622;25.416;2023-04-24T06:13:44;18.20;;;7.60;;
45077;SDS011;60508;42.622;25.416;2023-04-24T06:16:29;14.85;;;8.00;;
45077;SDS011;60508;42.622;25.416;2023-04-24T06:19:02;25.10;;;7.00;;
45077;SDS011;60508;42.622;25.416;2023-04-24T06:21:29;15.50;;;6.85;;
45077;SDS011;60508;42.622;25.416;2023-04-24T06:23:55;21.67;;;7.60;;
45077;SDS011;60508;42.622;25.416;2023-04-24T06:26:21;13.27;;;5.75;;
45077;SDS011;60508;42.622;25.416;2023-04-24T06:28:50;7.82;;;4.95;;
45077;SDS011;60508;42.622;25.416;2023-04-24T06:31:18;13.88;;;5.82;;
45077;SDS011;60508;42.622;25.416;2023-04-24T06:33:44;14.32;;;5.28;;
45077;SDS011;60508;42.622;25.416;2023-04-24T06:36:12;11.98;;;5.00;;
45077;SDS011;60508;42.622;25.416;2023-04-24T06:38:38;9.98;;;4.32;;
45077;SDS011;60508;42.622;25.416;2023-04-24T06:41:04;11.38;;;3.80;;
45077;SDS011;60508;42.622;25.416;2023-04-24T06:43:33;16.65;;;4.30;;
45077;SDS011;60508;42.622;25.416;2023-04-24T06:45:59;11.90;;;4.80;;
45077;SDS011;60508;42.622;25.416;2023-04-24T06:48:26;8.38;;;3.97;;
45077;SDS011;60508;42.622;25.416;2023-04-24T06:50:52;9.32;;;3.97;;
45077;SDS011;60508;42.622;25.416;2023-04-24T06:53:19;6.43;;;3.65;;
45077;SDS011;60508;42.622;25.416;2023-04-24T06:55:46;15.35;;;4.07;;
45077;SDS011;60508;42.622;25.416;2023-04-24T06:58:12;7.03;;;3.67;;
45077;SDS011;60508;42.622;25.416;2023-04-24T07:00:39;11.18;;;3.70;;
45077;SDS011;60508;42.622;25.416;2023-04-24T07:03:04;11.40;;;4.43;;
45077;SDS011;60508;42.622;25.416;2023-04-24T07:05:31;5.70;;;3.35;;
45077;SDS011;60508;42.622;25.416;2023-04-24T07:07:59;9.35;;;3.40;;
45077;SDS011;60508;42.622;25.416;2023-04-24T07:10:25;9.43;;;3.60;;
45077;SDS011;60508;42.622;25.416;2023-04-24T07:12:54;15.05;;;4.45;;
45077;SDS011;60508;42.622;25.416;2023-04-24T07:15:22;9.00;;;4.25;;
45077;SDS011;60508;42.622;25.416;2023-04-24T07:17:49;7.60;;;3.72;;
45077;SDS011;60508;42.622;25.416;2023-04-24T07:20:15;5.47;;;3.20;;
45077;SDS011;60508;42.622;25.416;2023-04-24T07:22:42;8.70;;;3.45;;
45077;SDS011;60508;42.622;25.416;2023-04-24T07:25:09;16.27;;;4.43;;
45077;SDS011;60508;42.622;25.416;2023-04-24T07:27:35;8.98;;;3.60;;
45077;SDS011;60508;42.622;25.416;2023-04-24T07:30:02;8.65;;;3.78;;
45077;SDS011;60508;42.622;25.416;2023-04-24T07:32:29;8.65;;;4.22;;
45077;SDS011;60508;42.622;25.416;2023-04-24T07:34:55;13.23;;;4.25;;
45077;SDS011;60508;42.622;25.416;2023-04-24T07:37:22;12.80;;;3.55;;
45077;SDS011;60508;42.622;25.416;2023-04-24T07:39:49;6.95;;;3.45;;
45077;SDS011;60508;42.622;25.416;2023-04-24T07:42:15;10.40;;;3.67;;
45077;SDS011;60508;42.622;25.416;2023-04-24T07:44:42;7.90;;;3.13;;
45077;SDS011;60508;42.622;25.416;2023-04-24T07:47:08;11.50;;;4.15;;
45077;SDS011;60508;42.622;25.416;2023-04-24T07:49:34;8.73;;;4.03;;
45077;SDS011;60508;42.622;25.416;2023-04-24T07:52:00;8.57;;;3.88;;
45077;SDS011;60508;42.622;25.416;2023-04-24T07:54:28;12.20;;;3.38;;
45077;SDS011;60508;42.622;25.416;2023-04-24T07:56:55;10.73;;;3.42;;
45077;SDS011;60508;42.622;25.416;2023-04-24T07:59:21;7.22;;;2.97;;
45077;SDS011;60508;42.622;25.416;2023-04-24T08:01:47;7.30;;;3.28;;
45077;SDS011;60508;42.622;25.416;2023-04-24T08:04:13;7.22;;;3.38;;
45077;SDS011;60508;42.622;25.416;2023-04-24T08:06:40;4.72;;;2.85;;
45077;SDS011;60508;42.622;25.416;2023-04-24T08:09:06;18.15;;;3.85;;
45077;SDS011;60508;42.622;25.416;2023-04-24T08:11:33;9.30;;;3.28;;
45077;SDS011;60508;42.622;25.416;2023-04-24T08:13:59;11.98;;;3.70;;
45077;SDS011;60508;42.622;25.416;2023-04-24T08:16:25;10.68;;;3.70;;
45077;SDS011;60508;42.622;25.416;2023-04-24T08:18:52;9.82;;;4.15;;
45077;SDS011;60508;42.622;25.416;2023-04-24T08:21:18;10.90;;;3.63;;
45077;SDS011;60508;42.622;25.416;2023-04-24T08:23:46;6.75;;;3.25;;
45077;SDS011;60508;42.622;25.416;2023-04-24T08:26:12;10.02;;;4.10;;
45077;SDS011;60508;42.622;25.416;2023-04-24T08:28:38;9.93;;;3.83;;
45077;SDS011;60508;42.622;25.416;2023-04-24T08:31:05;5.43;;;3.75;;
45077;SDS011;60508;42.622;25.416;2023-04-24T08:33:31;12.57;;;3.22;;
45077;SDS011;60508;42.622;25.416;2023-04-24T08:36:03;11.70;;;3.28;;
45077;SDS011;60508;42.622;25.416;2023-04-24T08:38:29;9.65;;;3.13;;
45077;SDS011;60508;42.622;25.416;2023-04-24T08:40:57;5.95;;;3.35;;
45077;SDS011;60508;42.622;25.416;2023-04-24T08:43:25;10.82;;;4.68;;
45077;SDS011;60508;42.622;25.416;2023-04-24T08:45:51;6.90;;;3.33;;
45077;SDS011;60508;42.622;25.416;2023-04-24T08:48:19;5.38;;;2.90;;
45077;SDS011;60508;42.622;25.416;2023-04-24T08:50:47;7.70;;;3.47;;
45077;SDS011;60508;42.622;25.416;2023-04-24T08:53:16;12.95;;;3.53;;
45077;SDS011;60508;42.622;25.416;2023-04-24T08:55:44;9.27;;;3.03;;
45077;SDS011;60508;42.622;25.416;2023-04-24T08:58:13;4.05;;;2.97;;
45077;SDS011;60508;42.622;25.416;2023-04-24T09:00:41;24.55;;;3.80;;
45077;SDS011;60508;42.622;25.416;2023-04-24T09:03:15;4.10;;;3.13;;
45077;SDS011;60508;42.622;25.416;2023-04-24T09:05:43;12.98;;;3.00;;
45077;SDS011;60508;42.622;25.416;2023-04-24T09:08:11;5.47;;;2.88;;
45077;SDS011;60508;42.622;25.416;2023-04-24T09:10:39;8.82;;;3.03;;
45077;SDS011;60508;42.622;25.416;2023-04-24T09:13:06;5.10;;;2.67;;
45077;SDS011;60508;42.622;25.416;2023-04-24T09:15:34;8.20;;;2.50;;
45077;SDS011;60508;42.622;25.416;2023-04-24T09:18:01;4.30;;;2.70;;
45077;SDS011;60508;42.622;25.416;2023-04-24T09:20:27;11.70;;;2.45;;
45077;SDS011;60508;42.622;25.416;2023-04-24T09:22:54;10.48;;;2.55;;
45077;SDS011;60508;42.622;25.416;2023-04-24T09:25:31;4.32;;;2.10;;
45077;SDS011;60508;42.622;25.416;2023-04-24T09:28:02;3.58;;;2.40;;
45077;SDS011;60508;42.622;25.416;2023-04-24T09:30:30;11.85;;;2.67;;
45077;SDS011;60508;42.622;25.416;2023-04-24T09:33:12;4.50;;;2.25;;
45077;SDS011;60508;42.622;25.416;2023-04-24T09:35:43;9.10;;;2.58;;
45077;SDS011;60508;42.622;25.416;2023-04-24T09:38:15;4.55;;;2.33;;
45077;SDS011;60508;42.622;25.416;2023-04-24T09:40:41;5.57;;;3.10;;
45077;SDS011;60508;42.622;25.416;2023-04-24T09:43:10;7.82;;;3.30;;
45077;SDS011;60508;42.622;25.416;2023-04-24T09:45:37;5.97;;;3.17;;
45077;SDS011;60508;42.622;25.416;2023-04-24T09:48:05;5.03;;;2.85;;
45077;SDS011;60508;42.622;25.416;2023-04-24T09:50:35;12.48;;;2.88;;
45077;SDS011;60508;42.622;25.416;2023-04-24T09:53:02;11.55;;;4.38;;
45077;SDS011;60508;42.622;25.416;2023-04-24T09:55:30;5.38;;;2.60;;
45077;SDS011;60508;42.622;25.416;2023-04-24T09:58:00;11.77;;;3.20;;
45077;SDS011;60508;42.622;25.416;2023-04-24T10:00:31;8.50;;;2.80;;
45077;SDS011;60508;42.622;25.416;2023-04-24T10:05:29;10.07;;;3.13;;
45077;SDS011;60508;42.622;25.416;2023-04-24T10:07:57;10.85;;;3.47;;
45077;SDS011;60508;42.622;25.416;2023-04-24T10:10:26;11.25;;;2.90;;
45077;SDS011;60508;42.622;25.416;2023-04-24T10:12:53;4.88;;;2.70;;
45077;SDS011;60508;42.622;25.416;2023-04-24T10:15:20;5.72;;;2.90;;
45077;SDS011;60508;42.622;25.416;2023-04-24T10:17:50;3.97;;;2.78;;
45077;SDS011;60508;42.622;25.416;2023-04-24T10:20:24;7.90;;;3.95;;
45077;SDS011;60508;42.622;25.416;2023-04-24T10:22:52;7.57;;;2.67;;
45077;SDS011;60508;42.622;25.416;2023-04-24T10:25:23;8.07;;;3.17;;
45077;SDS011;60508;42.622;25.416;2023-04-24T10:27:52;5.97;;;2.70;;
45077;SDS011;60508;42.622;25.416;2023-04-24T10:30:19;11.07;;;2.67;;
45077;SDS011;60508;42.622;25.416;2023-04-24T10:32:46;5.78;;;3.00;;
45077;SDS011;60508;42.622;25.416;2023-04-24T10:35:13;8.30;;;3.30;;
45077;SDS011;60508;42.622;25.416;2023-04-24T10:37:41;11.75;;;3.38;;
45077;SDS011;60508;42.622;25.416;2023-04-24T10:40:10;4.68;;;2.90;;
45077;SDS011;60508;42.622;25.416;2023-04-24T10:42:40;10.10;;;2.63;;
45077;SDS011;60508;42.622;25.416;2023-04-24T10:45:18;6.05;;;2.70;;
45077;SDS011;60508;42.622;25.416;2023-04-24T10:48:05;12.90;;;4.20;;
45077;SDS011;60508;42.622;25.416;2023-04-24T10:50:43;13.98;;;2.88;;
45077;SDS011;60508;42.622;25.416;2023-04-24T10:53:13;9.85;;;2.83;;
45077;SDS011;60508;42.622;25.416;2023-04-24T10:55:44;6.32;;;3.30;;
45077;SDS011;60508;42.622;25.416;2023-04-24T10:58:15;6.47;;;3.13;;
45077;SDS011;60508;42.622;25.416;2023-04-24T11:00:43;10.00;;;2.97;;
45077;SDS011;60508;42.622;25.416;2023-04-24T11:03:22;8.82;;;3.25;;
45077;SDS011;60508;42.622;25.416;2023-04-24T11:05:55;14.43;;;3.25;;
45077;SDS011;60508;42.622;25.416;2023-04-24T11:08:24;8.77;;;2.88;;
45077;SDS011;60508;42.622;25.416;2023-04-24T11:10:56;4.80;;;2.80;;
45077;SDS011;60508;42.622;25.416;2023-04-24T11:13:26;7.80;;;2.97;;
45077;SDS011;60508;42.622;25.416;2023-04-24T11:29:46;10.88;;;3.03;;
45077;SDS011;60508;42.622;25.416;2023-04-24T11:32:28;10.15;;;2.78;;
45077;SDS011;60508;42.622;25.416;2023-04-24T11:34:59;7.25;;;3.38;;
45077;SDS011;60508;42.622;25.416;2023-04-24T11:37:36;6.00;;;2.65;;
45077;SDS011;60508;42.622;25.416;2023-04-24T11:40:08;8.00;;;3.13;;
45077;SDS011;60508;42.622;25.416;2023-04-24T11:42:40;6.30;;;2.90;;
45077;SDS011;60508;42.622;25.416;2023-04-24T11:45:09;10.57;;;3.53;;
45077;SDS011;60508;42.622;25.416;2023-04-24T11:47:38;11.60;;;4.35;;
45077;SDS011;60508;42.622;25.416;2023-04-24T11:50:06;8.70;;;3.45;;
45077;SDS011;60508;42.622;25.416;2023-04-24T11:52:38;7.32;;;3.88;;
45077;SDS011;60508;42.622;25.416;2023-04-24T11:55:22;3.50;;;2.58;;
45077;SDS011;60508;42.622;25.416;2023-04-24T11:57:53;6.93;;;2.85;;
45077;SDS011;60508;42.622;25.416;2023-04-24T12:00:24;6.80;;;3.40;;
45077;SDS011;60508;42.622;25.416;2023-04-24T12:03:03;7.50;;;4.03;;
45077;SDS011;60508;42.622;25.416;2023-04-24T12:05:30;6.60;;;2.85;;
45077;SDS011;60508;42.622;25.416;2023-04-24T12:07:57;10.00;;;3.10;;
45077;SDS011;60508;42.622;25.416;2023-04-24T12:10:24;4.75;;;2.67;;
45077;SDS011;60508;42.622;25.416;2023-04-24T12:12:52;7.03;;;2.33;;
45077;SDS011;60508;42.622;25.416;2023-04-24T12:15:21;4.75;;;3.03;;
45077;SDS011;60508;42.622;25.416;2023-04-24T12:17:50;5.32;;;2.50;;
45077;SDS011;60508;42.622;25.416;2023-04-24T12:20:17;5.85;;;2.95;;
45077;SDS011;60508;42.622;25.416;2023-04-24T12:22:55;4.55;;;2.83;;
45077;SDS011;60508;42.622;25.416;2023-04-24T12:25:26;8.65;;;2.97;;
45077;SDS011;60508;42.622;25.416;2023-04-24T12:28:17;4.57;;;3.15;;
45077;SDS011;60508;42.622;25.416;2023-04-24T12:30:44;7.38;;;3.05;;
45077;SDS011;60508;42.622;25.416;2023-04-24T12:33:20;5.22;;;2.58;;
45077;SDS011;60508;42.622;25.416;2023-04-24T12:35:47;7.55;;;2.38;;
45077;SDS011;60508;42.622;25.416;2023-04-24T12:38:21;4.10;;;2.83;;
45077;SDS011;60508;42.622;25.416;2023-04-24T12:41:00;10.13;;;3.40;;
45077;SDS011;60508;42.622;25.416;2023-04-24T12:43:27;6.60;;;2.90;;
45077;SDS011;60508;42.622;25.416;2023-04-24T12:45:53;14.32;;;5.10;;
45077;SDS011;60508;42.622;25.416;2023-04-24T12:48:20;5.30;;;3.45;;
45077;SDS011;60508;42.622;25.416;2023-04-24T12:50:47;6.97;;;2.47;;
45077;SDS011;60508;42.622;25.416;2023-04-24T12:53:14;8.40;;;2.30;;
45077;SDS011;60508;42.622;25.416;2023-04-24T12:55:41;4.65;;;2.30;;
45077;SDS011;60508;42.622;25.416;2023-04-24T12:58:08;10.85;;;2.70;;
45077;SDS011;60508;42.622;25.416;2023-04-24T13:00:34;6.50;;;2.63;;
45077;SDS011;60508;42.622;25.416;2023-04-24T13:03:00;10.93;;;3.20;;
45077;SDS011;60508;42.622;25.416;2023-04-24T13:05:26;8.82;;;3.47;;
45077;SDS011;60508;42.622;25.416;2023-04-24T13:07:53;3.63;;;2.97;;
45077;SDS011;60508;42.622;25.416;2023-04-24T13:10:19;4.78;;;2.95;;
45077;SDS011;60508;42.622;25.416;2023-04-24T13:12:45;13.18;;;3.42;;
45077;SDS011;60508;42.622;25.416;2023-04-24T13:15:12;3.63;;;3.33;;
45077;SDS011;60508;42.622;25.416;2023-04-24T13:17:39;5.22;;;2.58;;
45077;SDS011;60508;42.622;25.416;2023-04-24T13:20:05;3.53;;;3.13;;
45077;SDS011;60508;42.622;25.416;2023-04-24T13:22:31;8.18;;;2.97;;
45077;SDS011;60508;42.622;25.416;2023-04-24T13:24:57;6.38;;;3.10;;
45077;SDS011;60508;42.622;25.416;2023-04-24T13:27:23;5.97;;;2.65;;
45077;SDS011;60508;42.622;25.416;2023-04-24T13:29:49;8.60;;;3.03;;
45077;SDS011;60508;42.622;25.416;2023-04-24T13:32:17;2.55;;;2.35;;
45077;SDS011;60508;42.622;25.416;2023-04-24T13:34:43;5.28;;;2.78;;
45077;SDS011;60508;42.622;25.416;2023-04-24T13:37:08;14.38;;;4.40;;
45077;SDS011;60508;42.622;25.416;2023-04-24T13:39:35;5.93;;;3.53;;
45077;SDS011;60508;42.622;25.416;2023-04-24T13:42:00;6.63;;;3.08;;
45077;SDS011;60508;42.622;25.416;2023-04-24T13:44:27;7.95;;;3.45;;
45077;SDS011;60508;42.622;25.416;2023-04-24T13:46:55;6.35;;;3.65;;
45077;SDS011;60508;42.622;25.416;2023-04-24T13:49:23;4.05;;;3.30;;
45077;SDS011;60508;42.622;25.416;2023-04-24T13:51:53;15.80;;;4.88;;
45077;SDS011;60508;42.622;25.416;2023-04-24T13:54:20;11.23;;;4.35;;
45077;SDS011;60508;42.622;25.416;2023-04-24T13:56:47;10.88;;;3.90;;
45077;SDS011;60508;42.622;25.416;2023-04-24T13:59:12;4.18;;;3.50;;
45077;SDS011;60508;42.622;25.416;2023-04-24T14:01:39;8.88;;;3.42;;
45077;SDS011;60508;42.622;25.416;2023-04-24T14:04:04;7.70;;;3.10;;
45077;SDS011;60508;42.622;25.416;2023-04-24T14:06:30;8.75;;;3.22;;
45077;SDS011;60508;42.622;25.416;2023-04-24T14:08:56;7.47;;;3.90;;
45077;SDS011;60508;42.622;25.416;2023-04-24T14:11:22;9.63;;;3.15;;
45077;SDS011;60508;42.622;25.416;2023-04-24T14:13:48;4.85;;;3.30;;
45077;SDS011;60508;42.622;25.416;2023-04-24T14:16:15;5.30;;;3.63;;
45077;SDS011;60508;42.622;25.416;2023-04-24T14:18:41;11.85;;;4.63;;
45077;SDS011;60508;42.622;25.416;2023-04-24T14:21:07;7.25;;;3.92;;
45077;SDS011;60508;42.622;25.416;2023-04-24T14:23:33;5.43;;;3.17;;
45077;SDS011;60508;42.622;25.416;2023-04-24T14:26:00;6.32;;;3.50;;
45077;SDS011;60508;42.622;25.416;2023-04-24T14:28:26;8.70;;;3.97;;
45077;SDS011;60508;42.622;25.416;2023-04-24T14:30:52;8.00;;;3.90;;
45077;SDS011;60508;42.622;25.416;2023-04-24T14:33:19;11.55;;;4.13;;
45077;SDS011;60508;42.622;25.416;2023-04-24T14:35:45;5.57;;;3.95;;
45077;SDS011;60508;42.622;25.416;2023-04-24T14:38:11;6.18;;;3.58;;
45077;SDS011;60508;42.622;25.416;2023-04-24T14:40:37;9.73;;;4.25;;
45077;SDS011;60508;42.622;25.416;2023-04-24T14:43:04;7.78;;;3.50;;
45077;SDS011;60508;42.622;25.416;2023-04-24T14:45:34;6.65;;;3.97;;
45077;SDS011;60508;42.622;25.416;2023-04-24T14:48:00;8.98;;;4.32;;
45077;SDS011;60508;42.622;25.416;2023-04-24T14:50:27;5.95;;;3.80;;
45077;SDS011;60508;42.622;25.416;2023-04-24T14:52:56;4.10;;;3.08;;